createdAt,value
2022-08-17T00:00:43.757Z,3.50
2022-08-17T00:03:08.287Z,3.70
2022-08-17T00:05:40.701Z,3.95
2022-08-17T00:08:08.957Z,3.80
2022-08-17T00:10:36.834Z,3.88
2022-08-17T00:13:08.774Z,3.78
2022-08-17T00:15:36.590Z,3.97
2022-08-17T00:19:01.662Z,4.07
2022-08-17T00:20:53.699Z,4.10
2022-08-17T00:23:21.875Z,3.30
2022-08-17T00:25:49.741Z,4.47
2022-08-17T00:28:17.677Z,3.92
2022-08-17T00:30:51.284Z,5.38
2022-08-17T00:33:24.120Z,4.18
2022-08-17T00:35:52.725Z,3.58
2022-08-17T00:38:20.647Z,4.93
2022-08-17T00:40:49.612Z,4.45
2022-08-17T00:43:21.468Z,4.55
2022-08-17T00:45:49.635Z,4.60
2022-08-17T00:48:29.134Z,4.53
2022-08-17T00:51:03.068Z,4.47
2022-08-17T00:53:32.173Z,4.20
2022-08-17T00:56:01.760Z,4.90
2022-08-17T00:58:35.818Z,4.72
2022-08-17T01:01:05.256Z,4.28
2022-08-17T01:03:34.031Z,4.65
2022-08-17T01:06:04.821Z,4.88
2022-08-17T01:08:33.418Z,4.57
2022-08-17T01:11:02.789Z,4.75
2022-08-17T01:13:36.744Z,4.10
2022-08-17T01:16:10.597Z,4.30
2022-08-17T01:18:38.778Z,4.32
2022-08-17T01:21:11.812Z,4.63
2022-08-17T01:26:11.349Z,5.43
2022-08-17T01:28:54.003Z,5.32
2022-08-17T01:31:23.538Z,5.55
2022-08-17T01:33:51.624Z,5.60
2022-08-17T01:36:19.398Z,5.53
2022-08-17T01:38:47.455Z,5.85
2022-08-17T01:41:16.819Z,5.50
2022-08-17T01:43:46.160Z,5.55
2022-08-17T01:46:15.621Z,4.82
2022-08-17T01:48:47.707Z,5.72
2022-08-17T01:51:16.046Z,5.47
2022-08-17T01:53:46.069Z,5.82
2022-08-17T01:56:14.998Z,5.50
2022-08-17T01:58:44.361Z,6.22
2022-08-17T02:01:14.794Z,5.95
2022-08-17T02:03:53.463Z,5.28
2022-08-17T02:06:28.476Z,5.82
2022-08-17T02:09:01.562Z,6.18
2022-08-17T02:11:32.477Z,5.05
2022-08-17T02:14:03.301Z,6.07
2022-08-17T02:16:37.040Z,5.75
2022-08-17T02:19:06.440Z,4.40
2022-08-17T02:21:34.517Z,5.47
2022-08-17T02:24:02.524Z,5.88
2022-08-17T02:26:30.397Z,6.03
2022-08-17T02:28:58.153Z,6.03
2022-08-17T02:31:27.298Z,6.43
2022-08-17T02:34:00.316Z,5.72
2022-08-17T02:36:33.340Z,5.35
2022-08-17T02:39:01.825Z,5.07
2022-08-17T02:41:29.825Z,5.30
2022-08-17T02:43:57.615Z,5.75
2022-08-17T02:46:26.872Z,4.68
2022-08-17T02:48:54.728Z,4.20
2022-08-17T02:51:22.775Z,5.00
2022-08-17T02:53:50.923Z,5.13
2022-08-17T02:56:18.925Z,5.00
2022-08-17T02:58:47.038Z,5.78
2022-08-17T03:01:14.854Z,6.18
2022-08-17T03:03:44.006Z,5.28
2022-08-17T03:06:12.100Z,4.97
2022-08-17T03:08:40.557Z,5.07
2022-08-17T03:11:08.571Z,5.43
2022-08-17T03:13:36.349Z,5.43
2022-08-17T03:16:04.531Z,5.63
2022-08-17T03:18:32.287Z,5.07
2022-08-17T03:21:04.518Z,6.15
2022-08-17T03:23:33.717Z,5.70
2022-08-17T03:26:01.699Z,5.10
2022-08-17T03:28:29.992Z,4.88
2022-08-17T03:30:58.078Z,6.45
2022-08-17T03:33:26.234Z,5.63
2022-08-17T03:35:54.001Z,5.88
2022-08-17T03:38:23.420Z,5.75
2022-08-17T03:40:57.161Z,5.57
2022-08-17T03:43:28.543Z,5.97
2022-08-17T03:46:27.775Z,5.93
2022-08-17T03:49:14.521Z,5.65
2022-08-17T03:51:59.900Z,6.00
2022-08-17T03:54:46.360Z,5.65
2022-08-17T03:57:14.440Z,5.80
2022-08-17T03:59:42.371Z,6.03
2022-08-17T04:02:12.232Z,5.47
2022-08-17T04:04:40.617Z,5.78
2022-08-17T04:07:08.571Z,5.90
2022-08-17T04:09:37.758Z,6.43
2022-08-17T04:12:06.104Z,6.65
2022-08-17T04:14:51.762Z,6.03
2022-08-17T04:17:21.917Z,5.53
2022-08-17T04:19:49.895Z,6.53
2022-08-17T04:22:30.978Z,7.13
2022-08-17T04:25:07.648Z,5.82
2022-08-17T04:27:35.810Z,6.45
2022-08-17T04:30:03.591Z,6.20
2022-08-17T04:33:04.215Z,6.13
2022-08-17T04:35:20.231Z,6.47
2022-08-17T04:37:48.339Z,5.97
2022-08-17T04:40:35.251Z,6.70
2022-08-17T04:43:04.300Z,6.15
2022-08-17T04:45:32.708Z,5.90
2022-08-17T04:48:02.218Z,6.20
2022-08-17T04:50:30.069Z,6.00
2022-08-17T04:52:58.461Z,6.10
2022-08-17T04:55:27.846Z,6.32
2022-08-17T04:57:55.827Z,5.30
2022-08-17T05:00:25.774Z,7.93
2022-08-17T05:02:54.862Z,5.80
2022-08-17T05:05:24.120Z,6.18
2022-08-17T05:07:52.616Z,6.47
2022-08-17T05:10:21.212Z,5.57
2022-08-17T05:12:57.870Z,6.05
2022-08-17T05:15:25.730Z,6.35
2022-08-17T05:17:53.811Z,5.65
2022-08-17T05:20:21.996Z,6.82
2022-08-17T05:22:51.243Z,7.90
2022-08-17T05:25:20.223Z,7.40
2022-08-17T05:27:54.469Z,7.10
2022-08-17T05:30:22.942Z,6.93
2022-08-17T05:32:54.733Z,6.95
2022-08-17T05:35:23.352Z,6.97
2022-08-17T05:37:51.433Z,6.65
2022-08-17T05:40:20.818Z,6.68
2022-08-17T05:42:48.696Z,7.20
2022-08-17T05:45:32.147Z,6.65
2022-08-17T05:48:08.411Z,6.68
2022-08-17T05:50:42.855Z,6.47
2022-08-17T05:53:14.095Z,6.80
2022-08-17T05:55:46.888Z,6.57
2022-08-17T05:58:23.056Z,6.97
2022-08-17T06:00:57.370Z,5.82
2022-08-17T06:03:29.267Z,5.97
2022-08-17T06:06:05.350Z,6.28
2022-08-17T06:08:35.192Z,6.22
2022-08-17T06:11:07.080Z,6.35
2022-08-17T06:13:43.472Z,6.47
2022-08-17T06:16:26.219Z,6.68
2022-08-17T06:19:05.204Z,6.53
2022-08-17T06:21:35.008Z,6.88
2022-08-17T06:24:06.130Z,6.65
2022-08-17T06:26:39.677Z,5.18
2022-08-17T06:29:18.835Z,5.63
2022-08-17T06:31:49.132Z,6.00
2022-08-17T06:34:16.946Z,5.53
2022-08-17T06:36:49.653Z,5.30
2022-08-17T06:39:26.533Z,5.63
2022-08-17T06:42:01.015Z,5.65
2022-08-17T06:44:43.631Z,5.55
2022-08-17T06:47:28.881Z,5.32
2022-08-17T06:50:02.304Z,5.75
2022-08-17T06:52:46.465Z,5.10
2022-08-17T06:55:18.791Z,4.65
2022-08-17T06:57:48.679Z,5.55
2022-08-17T07:00:18.434Z,6.57
2022-08-17T07:02:53.286Z,5.43
2022-08-17T07:05:23.216Z,4.95
2022-08-17T07:08:05.405Z,5.03
2022-08-17T07:10:37.281Z,4.90
2022-08-17T07:13:14.200Z,5.20
2022-08-17T07:15:43.323Z,6.32
2022-08-17T07:18:12.425Z,5.78
2022-08-17T07:20:43.629Z,5.10
2022-08-17T07:23:19.158Z,6.05
2022-08-17T07:25:46.901Z,5.13
2022-08-17T07:28:17.369Z,5.85
2022-08-17T07:30:49.216Z,5.57
2022-08-17T07:33:24.398Z,6.00
2022-08-17T07:35:52.207Z,6.18
2022-08-17T07:38:25.165Z,6.55
2022-08-17T07:41:03.228Z,6.45
2022-08-17T07:43:32.224Z,6.30
2022-08-17T07:46:37.172Z,6.55
2022-08-17T07:49:20.461Z,5.28
2022-08-17T07:51:56.673Z,6.20
2022-08-17T07:54:32.109Z,6.18
2022-08-17T07:57:01.676Z,5.95
2022-08-17T07:59:33.441Z,5.82
2022-08-17T08:02:17.063Z,4.72
2022-08-17T08:05:00.720Z,4.70
2022-08-17T08:07:32.206Z,5.03
2022-08-17T08:10:06.026Z,4.97
2022-08-17T08:12:36.738Z,5.00
2022-08-17T08:15:09.925Z,5.03
2022-08-17T08:17:46.742Z,4.80
2022-08-17T08:20:37.677Z,4.15
2022-08-17T08:23:06.216Z,4.25
2022-08-17T08:25:43.094Z,4.28
2022-08-17T08:28:15.913Z,3.78
2022-08-17T08:33:20.163Z,3.60
2022-08-17T08:35:52.349Z,3.83
2022-08-17T08:38:25.323Z,4.00
2022-08-17T08:40:57.339Z,4.13
2022-08-17T08:43:28.055Z,4.40
2022-08-17T08:45:59.460Z,3.80
2022-08-17T08:48:52.933Z,3.58
2022-08-17T08:51:31.694Z,3.70
2022-08-17T08:54:03.602Z,4.00
2022-08-17T08:56:35.409Z,3.37
2022-08-17T08:59:04.608Z,3.53
2022-08-17T09:01:37.093Z,3.72
2022-08-17T09:04:23.719Z,3.65
2022-08-17T09:06:59.116Z,3.53
2022-08-17T09:09:30.358Z,3.40
2022-08-17T09:12:03.921Z,3.50
2022-08-17T09:14:43.072Z,3.25
2022-08-17T09:17:16.559Z,3.63
2022-08-17T09:19:49.209Z,3.55
2022-08-17T09:22:24.930Z,2.63
2022-08-17T09:24:57.077Z,3.30
2022-08-17T09:27:28.138Z,3.38
2022-08-17T09:29:58.428Z,3.13
2022-08-17T09:32:29.929Z,3.08
2022-08-17T09:35:00.279Z,3.33
2022-08-17T09:37:32.360Z,3.13
2022-08-17T09:40:08.566Z,3.05
2022-08-17T09:42:42.089Z,2.92
2022-08-17T09:45:17.120Z,2.97
2022-08-17T09:47:50.204Z,2.78
2022-08-17T09:50:55.568Z,2.50
2022-08-17T09:53:11.072Z,2.80
2022-08-17T09:55:45.521Z,2.78
2022-08-17T09:58:15.739Z,2.90
2022-08-17T10:00:49.127Z,2.55
2022-08-17T10:03:22.875Z,2.45
2022-08-17T10:05:56.571Z,2.55
2022-08-17T10:08:30.792Z,2.70
2022-08-17T10:11:07.210Z,2.22
2022-08-17T10:13:40.119Z,3.20
2022-08-17T10:16:17.443Z,2.50
2022-08-17T10:18:52.548Z,2.60
2022-08-17T10:21:40.891Z,2.75
2022-08-17T10:24:31.330Z,1.75
2022-08-17T10:27:01.336Z,2.40
2022-08-17T10:29:48.462Z,2.10
2022-08-17T10:32:24.664Z,2.20
2022-08-17T10:35:01.541Z,2.22
2022-08-17T10:37:46.844Z,2.72
2022-08-17T10:40:33.677Z,2.25
2022-08-17T10:43:06.592Z,2.53
2022-08-17T10:45:40.523Z,2.45
2022-08-17T10:48:23.320Z,1.75
2022-08-17T10:50:59.964Z,2.40
2022-08-17T10:53:49.891Z,2.22
2022-08-17T10:56:19.501Z,2.20
2022-08-17T10:58:50.659Z,2.17
2022-08-17T11:01:18.865Z,2.85
2022-08-17T11:03:55.075Z,2.60
2022-08-17T11:06:26.675Z,2.50
2022-08-17T11:09:09.050Z,2.45
2022-08-17T11:11:54.408Z,2.20
2022-08-17T11:14:32.185Z,2.50
2022-08-17T11:17:07.891Z,2.70
2022-08-17T11:19:55.750Z,2.60
2022-08-17T11:22:34.210Z,2.65
2022-08-17T11:25:13.154Z,2.33
2022-08-17T11:27:42.606Z,2.30
2022-08-17T11:30:14.029Z,1.90
2022-08-17T11:32:47.572Z,2.50
2022-08-17T11:35:31.393Z,2.47
2022-08-17T11:38:10.825Z,2.03
2022-08-17T11:43:57.113Z,2.00
2022-08-17T11:46:57.798Z,2.08
2022-08-17T11:49:47.627Z,2.15
2022-08-17T11:52:48.054Z,1.58
2022-08-17T11:55:35.843Z,2.40
2022-08-17T11:58:06.519Z,1.60
2022-08-17T12:00:52.978Z,2.00
2022-08-17T12:03:27.298Z,2.05
2022-08-17T12:06:03.266Z,2.15
2022-08-17T12:08:33.056Z,2.13
2022-08-17T12:11:03.889Z,2.08
2022-08-17T12:13:39.454Z,2.40
2022-08-17T12:16:10.290Z,2.13
2022-08-17T12:18:57.990Z,1.95
2022-08-17T12:21:29.935Z,2.28
2022-08-17T12:23:59.882Z,1.90
2022-08-17T12:26:31.273Z,1.95
2022-08-17T12:29:06.950Z,1.90
2022-08-17T12:31:43.378Z,2.15
2022-08-17T12:34:15.955Z,2.25
2022-08-17T12:36:43.857Z,2.00
2022-08-17T12:39:14.214Z,1.85
2022-08-17T12:41:50.437Z,2.00
2022-08-17T12:44:19.475Z,1.98
2022-08-17T12:46:49.408Z,1.80
2022-08-17T12:49:26.500Z,2.10
2022-08-17T12:51:57.871Z,1.77
2022-08-17T12:54:31.726Z,2.55
2022-08-17T12:57:02.806Z,2.17
2022-08-17T12:59:33.276Z,2.15
2022-08-17T13:02:01.608Z,2.50
2022-08-17T13:04:32.245Z,2.42
2022-08-17T13:07:00.361Z,2.22
2022-08-17T13:09:35.958Z,2.42
2022-08-17T13:12:08.912Z,1.90
2022-08-17T13:14:36.785Z,2.10
2022-08-17T13:17:08.575Z,2.08
2022-08-17T13:19:49.073Z,2.30
2022-08-17T13:22:18.317Z,2.25
2022-08-17T13:24:53.398Z,2.35
2022-08-17T13:27:22.098Z,2.10
2022-08-17T13:29:53.515Z,2.08
2022-08-17T13:32:23.008Z,2.10
2022-08-17T13:35:12.591Z,1.90
2022-08-17T13:37:42.590Z,1.90
2022-08-17T13:40:29.231Z,2.30
2022-08-17T13:42:57.280Z,1.90
2022-08-17T13:45:38.752Z,2.10
2022-08-17T13:48:08.670Z,2.15
2022-08-17T13:50:43.149Z,2.40
2022-08-17T13:53:22.272Z,1.98
2022-08-17T13:55:52.746Z,2.10
2022-08-17T13:58:21.450Z,2.00
2022-08-17T14:00:50.893Z,2.47
2022-08-17T14:03:18.886Z,2.10
2022-08-17T14:05:48.481Z,2.10
2022-08-17T14:08:16.984Z,3.15
2022-08-17T14:10:45.328Z,3.03
2022-08-17T14:13:15.331Z,2.30
2022-08-17T14:15:56.331Z,2.40
2022-08-17T14:18:35.699Z,2.40
2022-08-17T14:21:14.353Z,2.90
2022-08-17T14:23:48.939Z,2.75
2022-08-17T14:26:23.293Z,2.30
2022-08-17T14:28:56.204Z,1.90
2022-08-17T14:31:24.988Z,2.20
2022-08-17T14:33:53.018Z,2.90
2022-08-17T14:36:22.170Z,2.42
2022-08-17T14:38:50.474Z,2.25
2022-08-17T14:41:21.951Z,2.17
2022-08-17T14:43:50.403Z,1.85
2022-08-17T14:46:18.569Z,1.63
2022-08-17T14:48:47.262Z,2.03
2022-08-17T14:51:16.047Z,1.70
2022-08-17T14:53:45.855Z,1.90
2022-08-17T14:56:13.693Z,2.17
2022-08-17T14:58:42.580Z,1.83
2022-08-17T15:01:10.660Z,2.17
2022-08-17T15:03:39.952Z,2.10
2022-08-17T15:06:09.381Z,2.08
2022-08-17T15:08:37.461Z,1.85
2022-08-17T15:11:06.914Z,2.03
2022-08-17T15:13:52.020Z,2.30
2022-08-17T15:16:21.240Z,1.85
2022-08-17T15:18:49.094Z,2.15
2022-08-17T15:21:18.414Z,3.08
2022-08-17T15:23:46.629Z,1.80
2022-08-17T15:26:16.848Z,1.85
2022-08-17T15:28:44.761Z,2.08
2022-08-17T15:31:18.260Z,2.15
2022-08-17T15:37:31.826Z,2.05
2022-08-17T15:40:01.173Z,2.20
2022-08-17T15:42:30.427Z,1.88
2022-08-17T15:45:00.079Z,2.17
2022-08-17T15:47:27.914Z,1.85
2022-08-17T15:50:00.004Z,3.15
2022-08-17T15:52:29.699Z,1.75
2022-08-17T15:54:59.138Z,1.88
2022-08-17T15:57:27.519Z,1.77
2022-08-17T15:59:58.487Z,2.03
2022-08-17T16:03:15.106Z,2.13
2022-08-17T16:05:21.875Z,2.67
2022-08-17T16:07:53.622Z,2.30
2022-08-17T16:10:21.759Z,2.53
2022-08-17T16:13:02.464Z,1.92
2022-08-17T16:15:32.168Z,2.10
2022-08-17T16:18:00.384Z,2.53
2022-08-17T16:20:28.273Z,2.00
2022-08-17T16:22:56.306Z,2.58
2022-08-17T16:25:38.900Z,2.35
2022-08-17T16:28:14.890Z,2.13
2022-08-17T16:30:43.981Z,2.75
2022-08-17T16:33:12.609Z,2.35
2022-08-17T16:35:43.225Z,2.00
2022-08-17T16:38:12.457Z,2.35
2022-08-17T16:40:40.559Z,2.38
2022-08-17T16:43:11.935Z,3.30
2022-08-17T16:45:41.059Z,2.47
2022-08-17T16:48:11.864Z,2.78
2022-08-17T16:50:39.891Z,2.30
2022-08-17T16:53:10.371Z,2.72
2022-08-17T16:55:38.451Z,2.95
2022-08-17T16:58:09.030Z,2.55
2022-08-17T17:00:37.712Z,2.20
2022-08-17T17:03:19.239Z,2.55
2022-08-17T17:05:57.679Z,2.40
2022-08-17T17:08:27.877Z,2.30
2022-08-17T17:10:58.597Z,3.00
2022-08-17T17:13:36.511Z,2.97
2022-08-17T17:16:17.421Z,2.55
2022-08-17T17:18:52.506Z,2.63
2022-08-17T17:21:22.217Z,2.92
2022-08-17T17:23:53.719Z,2.40
2022-08-17T17:26:40.995Z,2.40
2022-08-17T17:29:15.102Z,2.38
2022-08-17T17:31:47.962Z,2.40
2022-08-17T17:34:18.444Z,2.30
2022-08-17T17:36:48.454Z,2.70
2022-08-17T17:39:18.063Z,2.45
2022-08-17T17:41:48.247Z,2.10
2022-08-17T17:44:17.998Z,2.40
2022-08-17T17:46:51.369Z,2.22
2022-08-17T17:49:21.805Z,3.00
2022-08-17T17:52:08.014Z,2.55
2022-08-17T17:54:47.587Z,2.95
2022-08-17T17:57:21.283Z,2.40
2022-08-17T17:59:53.335Z,2.60
2022-08-17T18:02:45.159Z,2.22
2022-08-17T18:05:21.477Z,2.42
2022-08-17T18:07:52.561Z,2.40
2022-08-17T18:10:29.588Z,2.10
2022-08-17T18:13:03.784Z,2.88
2022-08-17T18:15:34.823Z,2.17
2022-08-17T18:18:23.610Z,2.17
2022-08-17T18:20:56.295Z,2.80
2022-08-17T18:25:56.796Z,2.83
2022-08-17T18:28:27.118Z,2.78
2022-08-17T18:31:04.575Z,2.67
2022-08-17T18:33:32.842Z,2.08
2022-08-17T18:36:02.145Z,2.47
2022-08-17T18:38:33.661Z,2.85
2022-08-17T18:41:03.017Z,2.60
2022-08-17T18:43:44.265Z,2.28
2022-08-17T18:46:29.014Z,2.70
2022-08-17T18:48:59.279Z,2.95
2022-08-17T18:51:42.156Z,2.63
2022-08-17T18:54:15.997Z,2.20
2022-08-17T18:56:44.606Z,2.88
2022-08-17T18:59:17.998Z,2.42
2022-08-17T19:01:59.916Z,2.60
2022-08-17T19:04:34.702Z,2.83
2022-08-17T19:07:06.524Z,2.70
2022-08-17T19:09:35.930Z,2.85
2022-08-17T19:12:04.896Z,2.83
2022-08-17T19:14:33.602Z,2.40
2022-08-17T19:17:05.949Z,2.83
2022-08-17T19:19:36.652Z,2.90
2022-08-17T19:22:12.612Z,3.05
2022-08-17T19:24:47.627Z,3.05
2022-08-17T19:27:18.643Z,3.25
2022-08-17T19:29:51.102Z,3.15
2022-08-17T19:32:20.904Z,2.58
2022-08-17T19:34:49.174Z,3.47
2022-08-17T19:37:27.168Z,3.03
2022-08-17T19:40:00.292Z,3.15
2022-08-17T19:42:32.464Z,2.92
2022-08-17T19:45:02.891Z,3.15
2022-08-17T19:47:54.257Z,2.38
2022-08-17T19:50:29.803Z,2.65
2022-08-17T19:53:02.525Z,3.00
2022-08-17T19:55:37.418Z,2.95
2022-08-17T19:58:07.924Z,3.08
2022-08-17T20:00:37.082Z,2.30
2022-08-17T20:03:07.759Z,3.05
2022-08-17T20:06:00.890Z,2.45
2022-08-17T20:08:30.008Z,2.97
2022-08-17T20:10:59.513Z,2.67
2022-08-17T20:13:32.950Z,2.58
2022-08-17T20:16:01.921Z,2.80
2022-08-17T20:18:46.089Z,2.38
2022-08-17T20:21:20.010Z,2.45
2022-08-17T20:26:19.992Z,3.40
2022-08-17T20:29:02.668Z,3.15
2022-08-17T20:31:41.408Z,3.00
2022-08-17T20:34:37.162Z,2.92
2022-08-17T20:37:07.840Z,3.00
2022-08-17T20:39:38.375Z,3.50
2022-08-17T20:42:09.649Z,3.03
2022-08-17T20:44:38.424Z,5.43
2022-08-17T20:47:08.121Z,3.03
2022-08-17T20:49:47.358Z,3.67
2022-08-17T20:52:16.568Z,3.33
2022-08-17T20:54:46.742Z,3.47
2022-08-17T20:57:32.915Z,3.60
2022-08-17T21:00:14.046Z,3.08
2022-08-17T21:02:44.364Z,3.38
2022-08-17T21:05:30.751Z,3.22
2022-08-17T21:08:00.329Z,2.83
2022-08-17T21:10:35.628Z,3.63
2022-08-17T21:13:22.036Z,3.25
2022-08-17T21:15:56.903Z,3.30
2022-08-17T21:18:29.893Z,3.20
2022-08-17T21:23:29.939Z,3.88
2022-08-17T21:26:09.979Z,3.78
2022-08-17T21:29:00.628Z,3.15
2022-08-17T21:31:34.477Z,3.75
2022-08-17T21:34:21.604Z,3.58
2022-08-17T21:36:49.674Z,3.90
2022-08-17T21:39:23.302Z,3.33
2022-08-17T21:41:57.418Z,2.97
2022-08-17T21:44:32.951Z,4.78
2022-08-17T21:47:15.836Z,3.20
2022-08-17T21:49:44.339Z,3.88
2022-08-17T21:52:14.694Z,3.42
2022-08-17T21:54:48.048Z,3.03
2022-08-17T21:57:17.185Z,3.85
2022-08-17T21:59:45.131Z,3.55
2022-08-17T22:02:20.215Z,3.28
2022-08-17T22:04:57.646Z,3.60
2022-08-17T22:07:35.303Z,3.35
2022-08-17T22:10:03.126Z,3.28
2022-08-17T22:12:30.883Z,3.60
2022-08-17T22:15:00.402Z,3.70
2022-08-17T22:17:31.486Z,3.55
2022-08-17T22:20:00.525Z,3.53
2022-08-17T22:22:33.799Z,3.90
2022-08-17T22:25:03.184Z,3.97
2022-08-17T22:27:51.728Z,3.72
2022-08-17T22:30:25.973Z,3.85
2022-08-17T22:32:55.398Z,3.60
2022-08-17T22:35:28.746Z,4.15
2022-08-17T22:37:56.751Z,5.03
2022-08-17T22:40:25.510Z,3.63
2022-08-17T22:42:53.489Z,3.28
2022-08-17T22:45:21.327Z,3.70
2022-08-17T22:47:49.740Z,3.58
2022-08-17T22:50:24.468Z,4.53
2022-08-17T22:53:17.775Z,3.30
2022-08-17T22:56:10.195Z,3.58
2022-08-17T22:59:00.793Z,3.53
2022-08-17T23:01:31.677Z,3.78
2022-08-17T23:04:01.213Z,3.72
2022-08-17T23:06:33.981Z,4.20
2022-08-17T23:09:04.167Z,3.67
2022-08-17T23:11:36.892Z,4.53
2022-08-17T23:14:16.331Z,4.10
2022-08-17T23:16:44.137Z,4.15
2022-08-17T23:19:12.705Z,3.97
2022-08-17T23:21:42.820Z,4.80
2022-08-17T23:24:10.687Z,4.13
2022-08-17T23:26:40.799Z,4.78
2022-08-17T23:29:08.958Z,5.18
2022-08-17T23:31:37.834Z,3.97
2022-08-17T23:34:06.579Z,3.75
2022-08-17T23:36:37.032Z,3.75
2022-08-17T23:39:06.570Z,4.47
2022-08-17T23:41:36.395Z,4.32
2022-08-17T23:44:05.915Z,4.72
2022-08-17T23:46:34.642Z,3.75
2022-08-17T23:49:03.535Z,4.05
2022-08-17T23:51:34.100Z,4.15
2022-08-17T23:54:07.914Z,4.90
2022-08-17T23:56:42.132Z,4.55
2022-08-17T23:59:10.156Z,4.22
